sensor_id;sensor_type;location;lat;lon;timestamp;pressure;altitude;pressure_sealevel;temperature;humidity
70468;BME280;57934;51.532;7.684;2023-01-31T00:01:22;101146.44;;;3.89;90.68
70468;BME280;57934;51.532;7.684;2023-01-31T00:03:52;101145.69;;;3.77;90.56
70468;BME280;57934;51.532;7.684;2023-01-31T00:06:24;101147.34;;;3.78;90.80
70468;BME280;57934;51.532;7.684;2023-01-31T00:08:51;101141.53;;;3.75;91.35
70468;BME280;57934;51.532;7.684;2023-01-31T00:11:19;101145.94;;;3.74;91.25
70468;BME280;57934;51.532;7.684;2023-01-31T00:13:45;101151.72;;;3.78;91.38
70468;BME280;57934;51.532;7.684;2023-01-31T00:16:13;101148.16;;;3.79;91.58
70468;BME280;57934;51.532;7.684;2023-01-31T00:18:40;101138.44;;;3.81;91.22
70468;BME280;57934;51.532;7.684;2023-01-31T00:21:08;101138.00;;;3.76;91.30
70468;BME280;57934;51.532;7.684;2023-01-31T00:23:36;101141.28;;;3.78;91.33
70468;BME280;57934;51.532;7.684;2023-01-31T00:26:18;101131.66;;;3.69;91.23
70468;BME280;57934;51.532;7.684;2023-01-31T00:28:45;101135.19;;;3.68;91.70
70468;BME280;57934;51.532;7.684;2023-01-31T00:31:13;101133.28;;;3.70;92.07
70468;BME280;57934;51.532;7.684;2023-01-31T00:33:40;101139.34;;;3.70;92.16
70468;BME280;57934;51.532;7.684;2023-01-31T00:36:10;101146.91;;;3.73;91.00
70468;BME280;57934;51.532;7.684;2023-01-31T00:38:36;101154.53;;;3.65;91.33
70468;BME280;57934;51.532;7.684;2023-01-31T00:41:03;101151.22;;;3.63;92.08
70468;BME280;57934;51.532;7.684;2023-01-31T00:43:30;101158.47;;;3.59;91.86
70468;BME280;57934;51.532;7.684;2023-01-31T00:45:57;101140.72;;;3.53;91.99
70468;BME280;57934;51.532;7.684;2023-01-31T00:48:24;101142.00;;;3.59;92.12
70468;BME280;57934;51.532;7.684;2023-01-31T00:50:50;101141.28;;;3.57;91.88
70468;BME280;57934;51.532;7.684;2023-01-31T00:53:16;101140.59;;;3.55;91.95
70468;BME280;57934;51.532;7.684;2023-01-31T00:55:53;101137.75;;;3.58;92.09
70468;BME280;57934;51.532;7.684;2023-01-31T00:58:19;101138.94;;;3.54;92.74
70468;BME280;57934;51.532;7.684;2023-01-31T01:00:45;101130.19;;;3.55;92.48
70468;BME280;57934;51.532;7.684;2023-01-31T01:03:12;101128.00;;;3.60;92.52
70468;BME280;57934;51.532;7.684;2023-01-31T01:05:38;101120.09;;;3.50;93.01
70468;BME280;57934;51.532;7.684;2023-01-31T01:08:04;101133.16;;;3.50;92.67
70468;BME280;57934;51.532;7.684;2023-01-31T01:10:31;101134.94;;;3.50;92.33
70468;BME280;57934;51.532;7.684;2023-01-31T01:12:57;101125.22;;;3.52;92.70
70468;BME280;57934;51.532;7.684;2023-01-31T01:15:23;101137.28;;;3.53;92.46
70468;BME280;57934;51.532;7.684;2023-01-31T01:17:49;101127.09;;;3.50;92.44
70468;BME280;57934;51.532;7.684;2023-01-31T01:20:18;101137.69;;;3.48;92.74
70468;BME280;57934;51.532;7.684;2023-01-31T01:22:44;101137.16;;;3.54;92.07
70468;BME280;57934;51.532;7.684;2023-01-31T01:25:10;101140.47;;;3.56;92.54
70468;BME280;57934;51.532;7.684;2023-01-31T01:27:36;101140.38;;;3.58;92.10
70468;BME280;57934;51.532;7.684;2023-01-31T01:30:03;101140.94;;;3.62;92.06
70468;BME280;57934;51.532;7.684;2023-01-31T01:32:29;101139.25;;;3.61;91.52
70468;BME280;57934;51.532;7.684;2023-01-31T01:34:55;101138.56;;;3.58;91.21
70468;BME280;57934;51.532;7.684;2023-01-31T01:37:22;101139.16;;;3.62;91.80
70468;BME280;57934;51.532;7.684;2023-01-31T01:39:48;101123.38;;;3.64;91.06
70468;BME280;57934;51.532;7.684;2023-01-31T01:42:16;101128.47;;;3.65;91.04
70468;BME280;57934;51.532;7.684;2023-01-31T01:44:44;101117.66;;;3.70;91.04
70468;BME280;57934;51.532;7.684;2023-01-31T01:47:35;101118.72;;;3.67;90.66
70468;BME280;57934;51.532;7.684;2023-01-31T01:52:39;101124.72;;;3.58;90.94
70468;BME280;57934;51.532;7.684;2023-01-31T01:55:43;101137.09;;;3.45;90.73
70468;BME280;57934;51.532;7.684;2023-01-31T01:58:15;101135.38;;;3.34;91.17
70468;BME280;57934;51.532;7.684;2023-01-31T02:00:44;101131.16;;;3.22;91.27
70468;BME280;57934;51.532;7.684;2023-01-31T02:03:10;101122.75;;;3.18;91.74
70468;BME280;57934;51.532;7.684;2023-01-31T02:05:43;101123.97;;;3.14;91.86
70468;BME280;57934;51.532;7.684;2023-01-31T02:08:12;101113.91;;;3.09;92.39
70468;BME280;57934;51.532;7.684;2023-01-31T02:10:46;101128.59;;;3.10;92.04
70468;BME280;57934;51.532;7.684;2023-01-31T02:13:14;101122.31;;;3.13;92.27
70468;BME280;57934;51.532;7.684;2023-01-31T02:15:44;101122.41;;;3.11;92.20
70468;BME280;57934;51.532;7.684;2023-01-31T02:18:11;101126.19;;;3.19;92.05
70468;BME280;57934;51.532;7.684;2023-01-31T02:20:55;101128.69;;;3.20;92.23
70468;BME280;57934;51.532;7.684;2023-01-31T02:23:45;101143.69;;;3.28;91.98
70468;BME280;57934;51.532;7.684;2023-01-31T02:34:37;101159.75;;;3.44;90.77
70468;BME280;57934;51.532;7.684;2023-01-31T02:37:32;101165.63;;;3.46;90.69
70468;BME280;57934;51.532;7.684;2023-01-31T02:40:10;101163.84;;;3.47;90.14
70468;BME280;57934;51.532;7.684;2023-01-31T02:42:53;101156.59;;;3.50;90.45
70468;BME280;57934;51.532;7.684;2023-01-31T02:45:30;101157.06;;;3.55;89.69
70468;BME280;57934;51.532;7.684;2023-01-31T02:48:15;101157.06;;;3.55;89.55
70468;BME280;57934;51.532;7.684;2023-01-31T02:51:02;101157.91;;;3.56;89.15
70468;BME280;57934;51.532;7.684;2023-01-31T02:53:35;101155.88;;;3.59;89.11
70468;BME280;57934;51.532;7.684;2023-01-31T02:56:09;101153.19;;;3.50;89.05
70468;BME280;57934;51.532;7.684;2023-01-31T02:58:47;101159.69;;;3.55;88.53
70468;BME280;57934;51.532;7.684;2023-01-31T03:01:19;101166.88;;;3.63;89.15
70468;BME280;57934;51.532;7.684;2023-01-31T03:03:46;101156.69;;;3.60;88.80
70468;BME280;57934;51.532;7.684;2023-01-31T03:09:16;101149.13;;;3.57;88.07
70468;BME280;57934;51.532;7.684;2023-01-31T03:17:25;101146.19;;;3.50;88.31
70468;BME280;57934;51.532;7.684;2023-01-31T03:22:42;101128.25;;;3.57;88.19
70468;BME280;57934;51.532;7.684;2023-01-31T03:25:12;101131.94;;;3.54;87.57
70468;BME280;57934;51.532;7.684;2023-01-31T03:27:44;101123.94;;;3.46;88.35
70468;BME280;57934;51.532;7.684;2023-01-31T03:30:17;101119.34;;;3.39;88.64
70468;BME280;57934;51.532;7.684;2023-01-31T03:32:56;101110.00;;;3.36;89.03
70468;BME280;57934;51.532;7.684;2023-01-31T03:35:26;101114.00;;;3.40;88.47
70468;BME280;57934;51.532;7.684;2023-01-31T03:38:04;101105.88;;;3.33;88.92
70468;BME280;57934;51.532;7.684;2023-01-31T03:40:39;101101.34;;;3.35;89.03
70468;BME280;57934;51.532;7.684;2023-01-31T03:45:47;101092.00;;;3.33;89.09
70468;BME280;57934;51.532;7.684;2023-01-31T03:48:15;101087.50;;;3.35;88.97
70468;BME280;57934;51.532;7.684;2023-01-31T03:51:00;101085.78;;;3.45;89.04
70468;BME280;57934;51.532;7.684;2023-01-31T03:56:28;101084.41;;;3.41;89.16
70468;BME280;57934;51.532;7.684;2023-01-31T03:59:02;101081.41;;;3.46;88.41
70468;BME280;57934;51.532;7.684;2023-01-31T04:01:32;101094.00;;;3.41;88.89
70468;BME280;57934;51.532;7.684;2023-01-31T04:04:07;101080.97;;;3.41;89.40
70468;BME280;57934;51.532;7.684;2023-01-31T04:06:35;101081.06;;;3.39;89.05
70468;BME280;57934;51.532;7.684;2023-01-31T04:09:01;101071.69;;;3.48;88.28
70468;BME280;57934;51.532;7.684;2023-01-31T04:11:27;101082.09;;;3.48;88.65
70468;BME280;57934;51.532;7.684;2023-01-31T04:13:53;101065.09;;;3.53;88.20
70468;BME280;57934;51.532;7.684;2023-01-31T04:16:19;101069.25;;;3.56;88.17
70468;BME280;57934;51.532;7.684;2023-01-31T04:18:45;101066.50;;;3.57;88.36
70468;BME280;57934;51.532;7.684;2023-01-31T04:21:13;101068.03;;;3.60;87.88
70468;BME280;57934;51.532;7.684;2023-01-31T04:23:39;101065.94;;;3.54;88.52
70468;BME280;57934;51.532;7.684;2023-01-31T04:26:05;101063.56;;;3.51;88.64
70468;BME280;57934;51.532;7.684;2023-01-31T04:28:31;101062.75;;;3.50;88.28
70468;BME280;57934;51.532;7.684;2023-01-31T04:30:57;101063.72;;;3.49;88.04
70468;BME280;57934;51.532;7.684;2023-01-31T04:33:23;101071.94;;;3.45;88.88
70468;BME280;57934;51.532;7.684;2023-01-31T04:35:50;101062.00;;;3.39;88.85
70468;BME280;57934;51.532;7.684;2023-01-31T04:38:17;101069.25;;;3.35;89.11
70468;BME280;57934;51.532;7.684;2023-01-31T04:40:43;101070.78;;;3.38;89.35
70468;BME280;57934;51.532;7.684;2023-01-31T04:43:09;101067.84;;;3.31;89.53
70468;BME280;57934;51.532;7.684;2023-01-31T04:45:35;101056.63;;;3.30;89.55
70468;BME280;57934;51.532;7.684;2023-01-31T04:48:01;101051.50;;;3.29;89.71
70468;BME280;57934;51.532;7.684;2023-01-31T04:50:27;101047.13;;;3.29;89.32
70468;BME280;57934;51.532;7.684;2023-01-31T04:52:53;101035.94;;;3.18;89.76
70468;BME280;57934;51.532;7.684;2023-01-31T04:55:19;101041.88;;;3.20;90.20
70468;BME280;57934;51.532;7.684;2023-01-31T04:57:45;101037.47;;;3.20;90.40
70468;BME280;57934;51.532;7.684;2023-01-31T05:00:11;101030.66;;;3.29;90.13
70468;BME280;57934;51.532;7.684;2023-01-31T05:02:37;101031.13;;;3.34;90.09
70468;BME280;57934;51.532;7.684;2023-01-31T05:05:04;101030.00;;;3.37;89.57
70468;BME280;57934;51.532;7.684;2023-01-31T05:07:31;101027.69;;;3.33;90.11
70468;BME280;57934;51.532;7.684;2023-01-31T05:09:57;101033.97;;;3.31;89.39
70468;BME280;57934;51.532;7.684;2023-01-31T05:12:23;101032.59;;;3.27;90.27
70468;BME280;57934;51.532;7.684;2023-01-31T05:14:49;101023.81;;;3.28;90.56
70468;BME280;57934;51.532;7.684;2023-01-31T05:17:16;101034.63;;;3.23;90.31
70468;BME280;57934;51.532;7.684;2023-01-31T05:19:42;101027.81;;;3.11;91.08
70468;BME280;57934;51.532;7.684;2023-01-31T05:22:08;101027.38;;;3.06;91.22
70468;BME280;57934;51.532;7.684;2023-01-31T05:24:34;101012.66;;;3.05;91.19
70468;BME280;57934;51.532;7.684;2023-01-31T05:27:02;101006.63;;;3.04;91.20
70468;BME280;57934;51.532;7.684;2023-01-31T05:29:30;101000.28;;;2.97;91.51
70468;BME280;57934;51.532;7.684;2023-01-31T05:31:57;101001.22;;;2.96;92.63
70468;BME280;57934;51.532;7.684;2023-01-31T05:34:25;100997.66;;;2.97;92.05
70468;BME280;57934;51.532;7.684;2023-01-31T05:36:51;100997.81;;;2.96;92.28
70468;BME280;57934;51.532;7.684;2023-01-31T05:39:17;100994.00;;;3.00;92.38
70468;BME280;57934;51.532;7.684;2023-01-31T05:41:43;100997.03;;;3.05;92.78
70468;BME280;57934;51.532;7.684;2023-01-31T05:44:09;100997.34;;;3.11;92.30
70468;BME280;57934;51.532;7.684;2023-01-31T05:46:36;100992.16;;;3.11;92.67
70468;BME280;57934;51.532;7.684;2023-01-31T05:49:03;100989.53;;;3.11;92.47
70468;BME280;57934;51.532;7.684;2023-01-31T05:51:29;100992.28;;;3.10;92.96
70468;BME280;57934;51.532;7.684;2023-01-31T05:53:56;100992.47;;;3.18;92.22
70468;BME280;57934;51.532;7.684;2023-01-31T05:56:22;100990.25;;;3.14;92.55
70468;BME280;57934;51.532;7.684;2023-01-31T05:58:49;100986.69;;;3.15;92.51
70468;BME280;57934;51.532;7.684;2023-01-31T06:01:17;100989.22;;;3.26;92.89
70468;BME280;57934;51.532;7.684;2023-01-31T06:03:43;100984.47;;;3.31;93.00
70468;BME280;57934;51.532;7.684;2023-01-31T06:06:09;100986.56;;;3.37;92.87
70468;BME280;57934;51.532;7.684;2023-01-31T06:08:35;100982.16;;;3.38;92.43
70468;BME280;57934;51.532;7.684;2023-01-31T06:11:02;100971.09;;;3.45;92.42
70468;BME280;57934;51.532;7.684;2023-01-31T06:13:32;100963.84;;;3.49;92.00
70468;BME280;57934;51.532;7.684;2023-01-31T06:15:59;100960.00;;;3.53;91.64
70468;BME280;57934;51.532;7.684;2023-01-31T06:18:25;100968.66;;;3.53;91.54
70468;BME280;57934;51.532;7.684;2023-01-31T06:20:52;100946.00;;;3.54;91.87
70468;BME280;57934;51.532;7.684;2023-01-31T06:23:18;100942.31;;;3.56;91.59
70468;BME280;57934;51.532;7.684;2023-01-31T06:25:48;100933.66;;;3.56;90.97
70468;BME280;57934;51.532;7.684;2023-01-31T06:28:14;100951.09;;;3.55;90.90
70468;BME280;57934;51.532;7.684;2023-01-31T06:30:40;100955.22;;;3.58;90.69
70468;BME280;57934;51.532;7.684;2023-01-31T06:33:06;100939.31;;;3.61;90.18
70468;BME280;57934;51.532;7.684;2023-01-31T06:35:32;100955.50;;;3.65;90.05
70468;BME280;57934;51.532;7.684;2023-01-31T06:37:58;100955.25;;;3.68;89.79
70468;BME280;57934;51.532;7.684;2023-01-31T06:40:24;100956.53;;;3.73;89.13
70468;BME280;57934;51.532;7.684;2023-01-31T06:42:50;100956.25;;;3.76;88.32
70468;BME280;57934;51.532;7.684;2023-01-31T06:45:16;100945.81;;;3.76;88.62
70468;BME280;57934;51.532;7.684;2023-01-31T06:47:46;100945.69;;;3.78;88.13
70468;BME280;57934;51.532;7.684;2023-01-31T06:50:12;100941.03;;;3.81;88.08
70468;BME280;57934;51.532;7.684;2023-01-31T06:52:38;100944.44;;;3.82;87.95
70468;BME280;57934;51.532;7.684;2023-01-31T06:55:05;100952.53;;;3.79;88.37
70468;BME280;57934;51.532;7.684;2023-01-31T06:57:31;100949.66;;;3.82;87.93
70468;BME280;57934;51.532;7.684;2023-01-31T06:59:57;100959.97;;;3.83;87.72
70468;BME280;57934;51.532;7.684;2023-01-31T07:02:23;100978.81;;;3.87;87.43
70468;BME280;57934;51.532;7.684;2023-01-31T07:04:50;100974.25;;;3.89;87.24
70468;BME280;57934;51.532;7.684;2023-01-31T07:07:16;100973.06;;;3.93;86.74
70468;BME280;57934;51.532;7.684;2023-01-31T07:09:42;100990.34;;;3.94;86.66
70468;BME280;57934;51.532;7.684;2023-01-31T07:12:09;100991.03;;;3.96;86.76
70468;BME280;57934;51.532;7.684;2023-01-31T07:14:34;100978.69;;;3.98;87.13
70468;BME280;57934;51.532;7.684;2023-01-31T07:17:00;100968.97;;;4.00;87.44
70468;BME280;57934;51.532;7.684;2023-01-31T07:19:26;100968.53;;;3.95;86.73
70468;BME280;57934;51.532;7.684;2023-01-31T07:21:52;100968.09;;;3.90;87.18
70468;BME280;57934;51.532;7.684;2023-01-31T07:24:18;100971.66;;;3.89;86.97
70468;BME280;57934;51.532;7.684;2023-01-31T07:26:44;100968.53;;;3.95;87.32
70468;BME280;57934;51.532;7.684;2023-01-31T07:29:10;100963.03;;;3.98;87.33
70468;BME280;57934;51.532;7.684;2023-01-31T07:31:37;100965.38;;;4.01;87.54
70468;BME280;57934;51.532;7.684;2023-01-31T07:34:03;100969.22;;;3.97;87.35
70468;BME280;57934;51.532;7.684;2023-01-31T07:36:30;100966.72;;;3.96;87.42
70468;BME280;57934;51.532;7.684;2023-01-31T07:38:56;100967.69;;;3.95;87.60
70468;BME280;57934;51.532;7.684;2023-01-31T07:41:23;100963.75;;;4.00;88.13
70468;BME280;57934;51.532;7.684;2023-01-31T07:43:50;100959.75;;;4.06;88.31
70468;BME280;57934;51.532;7.684;2023-01-31T07:46:17;100948.63;;;4.14;87.14
70468;BME280;57934;51.532;7.684;2023-01-31T07:48:43;100946.19;;;4.22;86.88
70468;BME280;57934;51.532;7.684;2023-01-31T07:51:10;100954.03;;;4.31;86.80
70468;BME280;57934;51.532;7.684;2023-01-31T07:53:37;100960.22;;;4.40;86.38
70468;BME280;57934;51.532;7.684;2023-01-31T07:56:15;100963.13;;;4.57;85.42
70468;BME280;57934;51.532;7.684;2023-01-31T07:58:43;100958.84;;;4.55;85.17
70468;BME280;57934;51.532;7.684;2023-01-31T08:01:15;100968.06;;;4.60;85.26
70468;BME280;57934;51.532;7.684;2023-01-31T08:04:01;100961.72;;;4.52;85.14
70468;BME280;57934;51.532;7.684;2023-01-31T08:06:28;100956.09;;;4.47;85.83
70468;BME280;57934;51.532;7.684;2023-01-31T08:08:56;100937.44;;;4.42;86.45
70468;BME280;57934;51.532;7.684;2023-01-31T08:11:22;100935.22;;;4.38;85.54
70468;BME280;57934;51.532;7.684;2023-01-31T08:13:48;100917.63;;;4.40;86.11
70468;BME280;57934;51.532;7.684;2023-01-31T08:16:14;100919.44;;;4.39;86.13
70468;BME280;57934;51.532;7.684;2023-01-31T08:18:40;100919.53;;;4.38;85.94
70468;BME280;57934;51.532;7.684;2023-01-31T08:21:07;100913.78;;;4.44;85.70
70468;BME280;57934;51.532;7.684;2023-01-31T08:23:35;100915.97;;;4.48;85.59
70468;BME280;57934;51.532;7.684;2023-01-31T08:26:05;100920.25;;;4.49;84.86
70468;BME280;57934;51.532;7.684;2023-01-31T08:28:32;100902.91;;;4.58;85.58
70468;BME280;57934;51.532;7.684;2023-01-31T08:30:58;100900.31;;;4.58;85.05
70468;BME280;57934;51.532;7.684;2023-01-31T08:33:25;100890.41;;;4.62;84.59
70468;BME280;57934;51.532;7.684;2023-01-31T08:35:51;100898.50;;;4.59;84.32
70468;BME280;57934;51.532;7.684;2023-01-31T08:38:17;100903.19;;;4.65;84.95
70468;BME280;57934;51.532;7.684;2023-01-31T08:40:43;100896.59;;;4.61;85.03
70468;BME280;57934;51.532;7.684;2023-01-31T08:43:09;100890.41;;;4.62;85.25
70468;BME280;57934;51.532;7.684;2023-01-31T08:45:35;100884.75;;;4.66;84.95
70468;BME280;57934;51.532;7.684;2023-01-31T08:48:02;100881.88;;;4.69;84.82
70468;BME280;57934;51.532;7.684;2023-01-31T08:50:29;100886.25;;;4.69;84.91
70468;BME280;57934;51.532;7.684;2023-01-31T08:52:59;100883.22;;;4.73;84.50
70468;BME280;57934;51.532;7.684;2023-01-31T08:55:26;100896.16;;;4.75;85.87
70468;BME280;57934;51.532;7.684;2023-01-31T08:57:52;100890.13;;;4.74;85.09
70468;BME280;57934;51.532;7.684;2023-01-31T09:00:19;100882.56;;;4.62;85.77
70468;BME280;57934;51.532;7.684;2023-01-31T09:03:01;100894.53;;;4.54;87.16
70468;BME280;57934;51.532;7.684;2023-01-31T09:05:28;100897.69;;;4.48;87.54
70468;BME280;57934;51.532;7.684;2023-01-31T09:07:54;100904.31;;;4.33;88.79
70468;BME280;57934;51.532;7.684;2023-01-31T09:10:21;100894.13;;;4.20;90.43
70468;BME280;57934;51.532;7.684;2023-01-31T09:12:47;100903.72;;;4.10;91.67
70468;BME280;57934;51.532;7.684;2023-01-31T09:15:13;100904.41;;;4.02;92.27
70468;BME280;57934;51.532;7.684;2023-01-31T09:17:40;100893.31;;;4.00;93.39
70468;BME280;57934;51.532;7.684;2023-01-31T09:20:07;100893.84;;;3.94;93.59
70468;BME280;57934;51.532;7.684;2023-01-31T09:22:35;100874.34;;;3.98;93.97
70468;BME280;57934;51.532;7.684;2023-01-31T09:25:01;100885.84;;;3.96;93.58
70468;BME280;57934;51.532;7.684;2023-01-31T09:27:28;100866.78;;;3.95;94.63
70468;BME280;57934;51.532;7.684;2023-01-31T09:29:54;100866.94;;;3.94;94.72
70468;BME280;57934;51.532;7.684;2023-01-31T09:32:21;100868.97;;;4.00;94.48
70468;BME280;57934;51.532;7.684;2023-01-31T09:34:47;100873.25;;;4.01;94.34
70468;BME280;57934;51.532;7.684;2023-01-31T09:37:17;100871.03;;;4.06;94.80
70468;BME280;57934;51.532;7.684;2023-01-31T09:39:43;100862.25;;;4.07;94.75
70468;BME280;57934;51.532;7.684;2023-01-31T09:42:18;100857.72;;;4.09;94.56
70468;BME280;57934;51.532;7.684;2023-01-31T09:45:01;100857.56;;;4.11;95.09
70468;BME280;57934;51.532;7.684;2023-01-31T09:47:39;100854.97;;;4.11;94.61
70468;BME280;57934;51.532;7.684;2023-01-31T09:52:42;100859.25;;;4.12;94.57
70468;BME280;57934;51.532;7.684;2023-01-31T09:55:23;100847.00;;;4.12;94.24
70468;BME280;57934;51.532;7.684;2023-01-31T09:58:30;100846.47;;;4.18;94.69
70468;BME280;57934;51.532;7.684;2023-01-31T10:01:10;100836.00;;;4.28;94.18
70468;BME280;57934;51.532;7.684;2023-01-31T10:03:54;100843.28;;;4.44;94.11
70468;BME280;57934;51.532;7.684;2023-01-31T10:06:29;100831.03;;;4.64;93.25
70468;BME280;57934;51.532;7.684;2023-01-31T10:09:09;100837.44;;;4.79;92.05
70468;BME280;57934;51.532;7.684;2023-01-31T10:11:49;100843.56;;;4.97;92.46
70468;BME280;57934;51.532;7.684;2023-01-31T10:17:04;100837.28;;;4.81;91.68
70468;BME280;57934;51.532;7.684;2023-01-31T10:19:35;100824.75;;;4.84;92.21
70468;BME280;57934;51.532;7.684;2023-01-31T10:22:07;100818.63;;;4.75;92.71
70468;BME280;57934;51.532;7.684;2023-01-31T10:24:40;100822.75;;;4.68;93.61
70468;BME280;57934;51.532;7.684;2023-01-31T10:27:39;100816.28;;;4.72;94.59
70468;BME280;57934;51.532;7.684;2023-01-31T10:30:16;100823.19;;;4.64;94.29
70468;BME280;57934;51.532;7.684;2023-01-31T10:32:46;100809.06;;;4.47;94.51
70468;BME280;57934;51.532;7.684;2023-01-31T10:35:23;100815.53;;;4.43;95.72
70468;BME280;57934;51.532;7.684;2023-01-31T10:38:04;100815.00;;;4.39;95.70
70468;BME280;57934;51.532;7.684;2023-01-31T10:40:35;100804.81;;;4.36;96.53
70468;BME280;57934;51.532;7.684;2023-01-31T10:43:14;100803.84;;;4.37;96.46
70468;BME280;57934;51.532;7.684;2023-01-31T10:45:41;100803.69;;;4.39;96.90
70468;BME280;57934;51.532;7.684;2023-01-31T10:48:18;100800.00;;;4.41;97.47
70468;BME280;57934;51.532;7.684;2023-01-31T10:51:12;100797.09;;;4.44;96.97
70468;BME280;57934;51.532;7.684;2023-01-31T10:56:33;100788.69;;;4.60;96.48
70468;BME280;57934;51.532;7.684;2023-01-31T10:59:04;100774.78;;;4.60;96.01
70468;BME280;57934;51.532;7.684;2023-01-31T11:01:33;100748.28;;;4.54;96.21
70468;BME280;57934;51.532;7.684;2023-01-31T11:04:01;100752.28;;;4.49;96.42
70468;BME280;57934;51.532;7.684;2023-01-31T11:06:27;100748.19;;;4.46;96.48
70468;BME280;57934;51.532;7.684;2023-01-31T11:08:58;100748.19;;;4.46;97.63
70468;BME280;57934;51.532;7.684;2023-01-31T11:11:26;100759.03;;;4.51;97.72
70468;BME280;57934;51.532;7.684;2023-01-31T11:14:00;100737.84;;;4.54;98.20
70468;BME280;57934;51.532;7.684;2023-01-31T11:16:34;100744.16;;;4.52;98.44
70468;BME280;57934;51.532;7.684;2023-01-31T11:21:48;100748.00;;;4.58;98.38
70468;BME280;57934;51.532;7.684;2023-01-31T11:24:23;100741.84;;;4.49;98.76
70468;BME280;57934;51.532;7.684;2023-01-31T11:27:03;100722.09;;;4.46;99.13
70468;BME280;57934;51.532;7.684;2023-01-31T11:29:34;100729.38;;;4.43;98.40
70468;BME280;57934;51.532;7.684;2023-01-31T11:32:03;100732.66;;;4.45;98.36
70468;BME280;57934;51.532;7.684;2023-01-31T11:34:30;100722.75;;;4.48;98.72
70468;BME280;57934;51.532;7.684;2023-01-31T11:37:22;100721.63;;;4.61;99.18
70468;BME280;57934;51.532;7.684;2023-01-31T11:39:55;100716.41;;;4.88;98.18
70468;BME280;57934;51.532;7.684;2023-01-31T11:42:22;100722.59;;;4.87;96.84
70468;BME280;57934;51.532;7.684;2023-01-31T11:45:01;100710.50;;;4.86;96.85
70468;BME280;57934;51.532;7.684;2023-01-31T11:47:41;100705.31;;;4.76;96.39
70468;BME280;57934;51.532;7.684;2023-01-31T11:50:29;100691.88;;;4.71;96.76
70468;BME280;57934;51.532;7.684;2023-01-31T11:52:58;100697.91;;;4.72;96.37
70468;BME280;57934;51.532;7.684;2023-01-31T11:55:26;100709.06;;;4.74;96.80
70468;BME280;57934;51.532;7.684;2023-01-31T11:57:58;100704.06;;;4.81;96.87
70468;BME280;57934;51.532;7.684;2023-01-31T12:00:27;100691.22;;;4.87;96.29
70468;BME280;57934;51.532;7.684;2023-01-31T12:03:03;100687.34;;;4.91;95.83
70468;BME280;57934;51.532;7.684;2023-01-31T12:05:40;100700.28;;;4.93;96.24
70468;BME280;57934;51.532;7.684;2023-01-31T12:08:35;100707.16;;;4.94;95.78
70468;BME280;57934;51.532;7.684;2023-01-31T12:11:28;100686.66;;;4.99;96.19
70468;BME280;57934;51.532;7.684;2023-01-31T12:14:15;100694.19;;;5.02;95.30
70468;BME280;57934;51.532;7.684;2023-01-31T12:16:43;100697.47;;;5.04;95.58
70468;BME280;57934;51.532;7.684;2023-01-31T12:22:13;100688.28;;;5.00;95.60
70468;BME280;57934;51.532;7.684;2023-01-31T12:27:23;100679.38;;;4.93;95.37
70468;BME280;57934;51.532;7.684;2023-01-31T12:41:32;100648.41;;;5.16;94.30
70468;BME280;57934;51.532;7.684;2023-01-31T12:47:05;100654.03;;;5.21;94.27
70468;BME280;57934;51.532;7.684;2023-01-31T12:50:17;100649.47;;;5.23;94.80
70468;BME280;57934;51.532;7.684;2023-01-31T12:55:49;100651.13;;;5.24;94.31
70468;BME280;57934;51.532;7.684;2023-01-31T12:58:39;100659.09;;;5.22;94.43
70468;BME280;57934;51.532;7.684;2023-01-31T13:01:23;100652.38;;;5.20;94.39
70468;BME280;57934;51.532;7.684;2023-01-31T13:04:21;100664.19;;;5.24;94.49
70468;BME280;57934;51.532;7.684;2023-01-31T13:06:56;100644.91;;;5.25;94.72
70468;BME280;57934;51.532;7.684;2023-01-31T13:09:27;100644.44;;;5.12;95.20
70468;BME280;57934;51.532;7.684;2023-01-31T13:12:08;100656.56;;;5.13;95.61
70468;BME280;57934;51.532;7.684;2023-01-31T13:14:39;100662.63;;;5.13;95.87
70468;BME280;57934;51.532;7.684;2023-01-31T13:17:11;100651.34;;;5.13;96.14
70468;BME280;57934;51.532;7.684;2023-01-31T13:19:40;100667.16;;;5.11;95.69
70468;BME280;57934;51.532;7.684;2023-01-31T13:22:13;100660.53;;;5.17;96.22
70468;BME280;57934;51.532;7.684;2023-01-31T13:24:44;100650.72;;;5.19;96.04
70468;BME280;57934;51.532;7.684;2023-01-31T13:27:28;100655.53;;;5.23;96.03
70468;BME280;57934;51.532;7.684;2023-01-31T13:32:37;100676.72;;;5.20;96.44
70468;BME280;57934;51.532;7.684;2023-01-31T13:37:49;100675.91;;;5.02;99.10
70468;BME280;57934;51.532;7.684;2023-01-31T13:40:27;100668.47;;;4.97;100.00
70468;BME280;57934;51.532;7.684;2023-01-31T13:43:01;100663.41;;;4.96;100.00
70468;BME280;57934;51.532;7.684;2023-01-31T13:45:35;100660.94;;;4.94;100.00
70468;BME280;57934;51.532;7.684;2023-01-31T13:48:13;100658.84;;;4.98;100.00
70468;BME280;57934;51.532;7.684;2023-01-31T13:50:50;100659.47;;;4.92;100.00
70468;BME280;57934;51.532;7.684;2023-01-31T13:53:42;100646.06;;;4.95;100.00
70468;BME280;57934;51.532;7.684;2023-01-31T13:56:13;100663.41;;;4.96;100.00
70468;BME280;57934;51.532;7.684;2023-01-31T13:58:43;100657.13;;;4.89;100.00
70468;BME280;57934;51.532;7.684;2023-01-31T14:01:18;100654.06;;;4.93;100.00
70468;BME280;57934;51.532;7.684;2023-01-31T14:09:24;100650.78;;;4.91;100.00
70468;BME280;57934;51.532;7.684;2023-01-31T14:11:51;100651.16;;;4.96;100.00
70468;BME280;57934;51.532;7.684;2023-01-31T14:14:20;100648.31;;;4.90;100.00
70468;BME280;57934;51.532;7.684;2023-01-31T14:16:52;100645.25;;;4.94;100.00
70468;BME280;57934;51.532;7.684;2023-01-31T14:22:11;100633.47;;;4.90;100.00
70468;BME280;57934;51.532;7.684;2023-01-31T14:32:45;100647.34;;;4.91;100.00
70468;BME280;57934;51.532;7.684;2023-01-31T14:48:54;100648.31;;;4.90;100.00
70468;BME280;57934;51.532;7.684;2023-01-31T14:57:13;100647.88;;;4.94;100.00
70468;BME280;57934;51.532;7.684;2023-01-31T14:59:45;100653.91;;;4.95;100.00
70468;BME280;57934;51.532;7.684;2023-01-31T15:02:47;100653.91;;;4.95;100.00